sensor_id;sensor_type;location;lat;lon;timestamp;temperature;humidity
80789;DHT22;70191;51.114;8.678;2023-06-22T11:10:07;27.30;99.60
80789;DHT22;70191;51.114;8.678;2023-06-22T11:13:28;26.90;99.40
80789;DHT22;70191;51.114;8.678;2023-06-22T11:15:53;26.70;99.20
80789;DHT22;70191;51.114;8.678;2023-06-22T11:18:19;29.00;99.90
80789;DHT22;70191;51.114;8.678;2023-06-22T11:20:44;27.70;97.60
80789;DHT22;70191;51.114;8.678;2023-06-22T11:23:10;26.90;98.60
80789;DHT22;70191;51.114;8.678;2023-06-22T11:25:37;26.50;99.60
80789;DHT22;70191;51.114;8.678;2023-06-22T11:28:03;26.30;99.90
80789;DHT22;70191;51.114;8.678;2023-06-22T11:30:29;26.10;99.90
80789;DHT22;70191;51.114;8.678;2023-06-22T11:32:57;26.00;99.90
80789;DHT22;70191;51.114;8.678;2023-06-22T11:35:23;25.90;99.90
80789;DHT22;70191;51.114;8.678;2023-06-22T11:37:48;25.90;99.90
80789;DHT22;70191;51.114;8.678;2023-06-22T11:40:14;25.90;99.90
80789;DHT22;70191;51.114;8.678;2023-06-22T11:42:40;25.80;99.90
80789;DHT22;70191;51.114;8.678;2023-06-22T11:45:06;25.90;99.90
80789;DHT22;70191;51.114;8.678;2023-06-22T11:47:32;26.00;99.90
80789;DHT22;70191;51.114;8.678;2023-06-22T11:49:57;26.00;99.90
80789;DHT22;70191;51.114;8.678;2023-06-22T11:52:23;25.90;99.90
80789;DHT22;70191;51.114;8.678;2023-06-22T11:54:48;25.90;99.90
80789;DHT22;70191;51.114;8.678;2023-06-22T11:57:14;25.80;99.90
80789;DHT22;70191;51.114;8.678;2023-06-22T11:59:39;25.80;99.90
80789;DHT22;70191;51.114;8.678;2023-06-22T12:02:05;25.70;99.90
80789;DHT22;70191;51.114;8.678;2023-06-22T12:04:32;25.70;99.90
80789;DHT22;70191;51.114;8.678;2023-06-22T12:06:58;25.70;99.90
80789;DHT22;70191;51.114;8.678;2023-06-22T12:09:24;25.80;99.90
80789;DHT22;70191;51.114;8.678;2023-06-22T12:11:49;26.00;99.90
80789;DHT22;70191;51.114;8.678;2023-06-22T12:14:15;26.10;99.90
80789;DHT22;70191;51.114;8.678;2023-06-22T12:16:40;26.20;99.90
80789;DHT22;70191;51.114;8.678;2023-06-22T12:19:06;26.30;99.90
80789;DHT22;70191;51.114;8.678;2023-06-22T12:21:32;26.40;99.90
80789;DHT22;70191;51.114;8.678;2023-06-22T12:23:57;26.40;99.90
80789;DHT22;70191;51.114;8.678;2023-06-22T12:26:23;26.50;99.90
80789;DHT22;70191;51.114;8.678;2023-06-22T12:28:48;26.60;99.90
80789;DHT22;70191;51.114;8.678;2023-06-22T12:31:14;26.60;99.90
80789;DHT22;70191;51.114;8.678;2023-06-22T12:33:40;26.60;99.90
80789;DHT22;70191;51.114;8.678;2023-06-22T12:36:05;26.60;99.90
80789;DHT22;70191;51.114;8.678;2023-06-22T12:38:31;26.60;99.90
80789;DHT22;70191;51.114;8.678;2023-06-22T12:40:56;26.60;99.90
80789;DHT22;70191;51.114;8.678;2023-06-22T12:43:22;26.60;99.80
80789;DHT22;70191;51.114;8.678;2023-06-22T12:45:47;26.70;99.70
80789;DHT22;70191;51.114;8.678;2023-06-22T12:48:13;26.70;99.50
80789;DHT22;70191;51.114;8.678;2023-06-22T12:50:38;26.70;99.50
80789;DHT22;70191;51.114;8.678;2023-06-22T12:53:04;26.80;99.10
80789;DHT22;70191;51.114;8.678;2023-06-22T12:55:31;26.80;98.90
80789;DHT22;70191;51.114;8.678;2023-06-22T12:57:57;26.80;98.60
80789;DHT22;70191;51.114;8.678;2023-06-22T13:00:22;26.70;98.50
80789;DHT22;70191;51.114;8.678;2023-06-22T13:02:48;26.60;98.60
80789;DHT22;70191;51.114;8.678;2023-06-22T13:05:14;26.50;98.70
80789;DHT22;70191;51.114;8.678;2023-06-22T13:07:39;26.40;98.80
80789;DHT22;70191;51.114;8.678;2023-06-22T13:10:05;26.30;99.00
80789;DHT22;70191;51.114;8.678;2023-06-22T13:12:31;26.10;99.20
80789;DHT22;70191;51.114;8.678;2023-06-22T13:14:56;26.00;99.30
80789;DHT22;70191;51.114;8.678;2023-06-22T13:17:22;25.90;99.50
80789;DHT22;70191;51.114;8.678;2023-06-22T13:19:47;25.90;99.80
80789;DHT22;70191;51.114;8.678;2023-06-22T13:22:45;25.80;99.90
80789;DHT22;70191;51.114;8.678;2023-06-22T13:25:11;25.80;99.90
80789;DHT22;70191;51.114;8.678;2023-06-22T13:27:41;25.70;99.90
80789;DHT22;70191;51.114;8.678;2023-06-22T13:30:08;25.70;99.90
80789;DHT22;70191;51.114;8.678;2023-06-22T13:32:34;25.60;99.90
80789;DHT22;70191;51.114;8.678;2023-06-22T13:34:59;25.60;99.90
80789;DHT22;70191;51.114;8.678;2023-06-22T13:37:26;25.60;99.90
80789;DHT22;70191;51.114;8.678;2023-06-22T13:39:51;25.60;99.90
80789;DHT22;70191;51.114;8.678;2023-06-22T13:42:17;25.60;99.90
80789;DHT22;70191;51.114;8.678;2023-06-22T13:44:43;25.70;99.90
80789;DHT22;70191;51.114;8.678;2023-06-22T13:47:09;25.70;99.90
80789;DHT22;70191;51.114;8.678;2023-06-22T13:49:34;24.50;99.90
80789;DHT22;70191;51.114;8.678;2023-06-22T13:52:00;20.90;99.90
80789;DHT22;70191;51.114;8.678;2023-06-22T13:54:26;20.00;99.90
80789;DHT22;70191;51.114;8.678;2023-06-22T13:56:51;19.80;99.90
80789;DHT22;70191;51.114;8.678;2023-06-22T13:59:17;19.80;99.90
80789;DHT22;70191;51.114;8.678;2023-06-22T14:01:42;19.80;99.90
80789;DHT22;70191;51.114;8.678;2023-06-22T14:04:09;19.80;99.90
80789;DHT22;70191;51.114;8.678;2023-06-22T14:06:35;19.90;99.90
80789;DHT22;70191;51.114;8.678;2023-06-22T14:09:00;20.10;99.90
80789;DHT22;70191;51.114;8.678;2023-06-22T14:11:26;20.60;99.90
80789;DHT22;70191;51.114;8.678;2023-06-22T14:13:51;21.30;99.90
80789;DHT22;70191;51.114;8.678;2023-06-22T14:16:17;22.10;99.90
80789;DHT22;70191;51.114;8.678;2023-06-22T14:18:42;23.30;99.90
80789;DHT22;70191;51.114;8.678;2023-06-22T14:21:08;24.40;99.90
80789;DHT22;70191;51.114;8.678;2023-06-22T14:23:33;25.10;99.90
80789;DHT22;70191;51.114;8.678;2023-06-22T14:25:59;24.80;99.90
80789;DHT22;70191;51.114;8.678;2023-06-22T14:28:25;23.50;99.90
80789;DHT22;70191;51.114;8.678;2023-06-22T14:30:50;22.70;99.90
80789;DHT22;70191;51.114;8.678;2023-06-22T14:33:16;21.90;99.90
80789;DHT22;70191;51.114;8.678;2023-06-22T14:35:41;21.60;99.90
80789;DHT22;70191;51.114;8.678;2023-06-22T14:38:07;21.00;99.90
80789;DHT22;70191;51.114;8.678;2023-06-22T14:40:33;20.60;99.90
80789;DHT22;70191;51.114;8.678;2023-06-22T14:42:58;21.20;99.90
80789;DHT22;70191;51.114;8.678;2023-06-22T14:45:24;22.00;99.90
80789;DHT22;70191;51.114;8.678;2023-06-22T14:47:50;21.70;99.90
80789;DHT22;70191;51.114;8.678;2023-06-22T14:50:15;22.20;99.90
80789;DHT22;70191;51.114;8.678;2023-06-22T14:52:41;26.50;99.90
80789;DHT22;70191;51.114;8.678;2023-06-22T14:55:07;25.20;99.90
80789;DHT22;70191;51.114;8.678;2023-06-22T14:57:33;24.00;99.90
80789;DHT22;70191;51.114;8.678;2023-06-22T14:59:58;23.70;99.90
80789;DHT22;70191;51.114;8.678;2023-06-22T15:02:25;23.20;99.90
80789;DHT22;70191;51.114;8.678;2023-06-22T15:04:50;22.10;99.90
80789;DHT22;70191;51.114;8.678;2023-06-22T15:07:18;21.40;99.90
80789;DHT22;70191;51.114;8.678;2023-06-22T15:09:43;21.40;99.90
80789;DHT22;70191;51.114;8.678;2023-06-22T15:12:10;21.30;99.90
80789;DHT22;70191;51.114;8.678;2023-06-22T15:14:40;20.70;99.90
80789;DHT22;70191;51.114;8.678;2023-06-22T15:17:07;20.20;99.90
80789;DHT22;70191;51.114;8.678;2023-06-22T15:19:37;19.90;99.90
80789;DHT22;70191;51.114;8.678;2023-06-22T15:22:06;19.50;99.90
80789;DHT22;70191;51.114;8.678;2023-06-22T15:24:33;19.20;99.90
80789;DHT22;70191;51.114;8.678;2023-06-22T15:26:59;19.00;99.90
80789;DHT22;70191;51.114;8.678;2023-06-22T15:29:25;18.80;99.90
80789;DHT22;70191;51.114;8.678;2023-06-22T15:31:51;18.80;99.90
80789;DHT22;70191;51.114;8.678;2023-06-22T15:34:18;18.90;99.90
80789;DHT22;70191;51.114;8.678;2023-06-22T15:36:43;18.70;99.90
80789;DHT22;70191;51.114;8.678;2023-06-22T15:39:09;18.50;99.90
80789;DHT22;70191;51.114;8.678;2023-06-22T15:41:35;19.10;99.90
80789;DHT22;70191;51.114;8.678;2023-06-22T15:44:01;18.30;99.90
80789;DHT22;70191;51.114;8.678;2023-06-22T15:46:26;18.00;99.90
80789;DHT22;70191;51.114;8.678;2023-06-22T15:48:52;18.00;99.90
80789;DHT22;70191;51.114;8.678;2023-06-22T15:51:17;18.40;99.90
80789;DHT22;70191;51.114;8.678;2023-06-22T15:53:43;18.40;99.90
80789;DHT22;70191;51.114;8.678;2023-06-22T15:56:08;18.60;99.90
80789;DHT22;70191;51.114;8.678;2023-06-22T15:58:38;18.60;99.90
80789;DHT22;70191;51.114;8.678;2023-06-22T16:01:04;18.60;99.90
80789;DHT22;70191;51.114;8.678;2023-06-22T16:03:31;18.40;99.90
80789;DHT22;70191;51.114;8.678;2023-06-22T16:05:57;18.70;99.90
80789;DHT22;70191;51.114;8.678;2023-06-22T16:08:22;18.70;99.90
80789;DHT22;70191;51.114;8.678;2023-06-22T16:10:53;18.50;99.90
80789;DHT22;70191;51.114;8.678;2023-06-22T16:13:19;18.20;99.90
80789;DHT22;70191;51.114;8.678;2023-06-22T16:15:44;18.20;99.90
80789;DHT22;70191;51.114;8.678;2023-06-22T16:18:10;18.20;99.90
80789;DHT22;70191;51.114;8.678;2023-06-22T16:20:35;18.10;99.90
80789;DHT22;70191;51.114;8.678;2023-06-22T16:23:01;18.00;99.90
80789;DHT22;70191;51.114;8.678;2023-06-22T16:25:27;18.10;99.90
80789;DHT22;70191;51.114;8.678;2023-06-22T16:27:53;18.10;99.90
80789;DHT22;70191;51.114;8.678;2023-06-22T16:30:19;18.00;99.90
80789;DHT22;70191;51.114;8.678;2023-06-22T16:32:55;18.00;99.90
80789;DHT22;70191;51.114;8.678;2023-06-22T16:35:24;17.90;99.90
80789;DHT22;70191;51.114;8.678;2023-06-22T16:37:52;17.90;99.90
80789;DHT22;70191;51.114;8.678;2023-06-22T16:40:18;17.90;99.90
80789;DHT22;70191;51.114;8.678;2023-06-22T16:42:46;17.90;99.90
80789;DHT22;70191;51.114;8.678;2023-06-22T16:45:16;17.90;99.90
80789;DHT22;70191;51.114;8.678;2023-06-22T16:47:46;17.90;99.90
80789;DHT22;70191;51.114;8.678;2023-06-22T16:50:12;17.90;99.90
80789;DHT22;70191;51.114;8.678;2023-06-22T16:52:38;17.90;99.90
80789;DHT22;70191;51.114;8.678;2023-06-22T16:55:09;17.90;99.90
80789;DHT22;70191;51.114;8.678;2023-06-22T16:57:35;17.80;99.90
80789;DHT22;70191;51.114;8.678;2023-06-22T17:00:01;17.80;99.90
80789;DHT22;70191;51.114;8.678;2023-06-22T17:02:26;17.70;99.90
80789;DHT22;70191;51.114;8.678;2023-06-22T17:04:53;17.60;99.90
80789;DHT22;70191;51.114;8.678;2023-06-22T17:07:20;17.60;99.90
80789;DHT22;70191;51.114;8.678;2023-06-22T17:09:47;17.60;99.90
80789;DHT22;70191;51.114;8.678;2023-06-22T17:12:14;18.50;99.90
80789;DHT22;70191;51.114;8.678;2023-06-22T17:14:40;19.40;99.90
80789;DHT22;70191;51.114;8.678;2023-06-22T17:17:22;21.60;99.90
80789;DHT22;70191;51.114;8.678;2023-06-22T17:20:47;24.00;99.90
80789;DHT22;70191;51.114;8.678;2023-06-22T17:23:13;23.70;99.90
80789;DHT22;70191;51.114;8.678;2023-06-22T17:25:39;23.80;99.90
80789;DHT22;70191;51.114;8.678;2023-06-22T17:28:05;24.10;99.90
80789;DHT22;70191;51.114;8.678;2023-06-22T17:30:30;24.50;99.90
80789;DHT22;70191;51.114;8.678;2023-06-22T17:32:57;24.60;99.90
80789;DHT22;70191;51.114;8.678;2023-06-22T17:35:23;24.70;99.90
80789;DHT22;70191;51.114;8.678;2023-06-22T17:37:54;24.70;99.90
80789;DHT22;70191;51.114;8.678;2023-06-22T17:40:22;24.80;99.90
80789;DHT22;70191;51.114;8.678;2023-06-22T17:42:48;25.00;99.90
80789;DHT22;70191;51.114;8.678;2023-06-22T17:45:22;25.10;99.90
80789;DHT22;70191;51.114;8.678;2023-06-22T17:47:53;25.30;99.90
80789;DHT22;70191;51.114;8.678;2023-06-22T17:50:23;25.30;99.90
80789;DHT22;70191;51.114;8.678;2023-06-22T17:52:50;25.30;99.90
80789;DHT22;70191;51.114;8.678;2023-06-22T17:55:19;25.50;99.90
80789;DHT22;70191;51.114;8.678;2023-06-22T17:57:45;25.50;99.90
80789;DHT22;70191;51.114;8.678;2023-06-22T18:00:15;25.80;99.90
80789;DHT22;70191;51.114;8.678;2023-06-22T18:02:42;25.60;99.90
80789;DHT22;70191;51.114;8.678;2023-06-22T18:05:09;25.80;99.90
80789;DHT22;70191;51.114;8.678;2023-06-22T18:07:35;25.90;99.90
80789;DHT22;70191;51.114;8.678;2023-06-22T18:10:03;26.00;99.90
80789;DHT22;70191;51.114;8.678;2023-06-22T18:12:28;26.00;99.90
80789;DHT22;70191;51.114;8.678;2023-06-22T18:14:54;26.10;99.90
80789;DHT22;70191;51.114;8.678;2023-06-22T18:17:21;26.10;99.90
80789;DHT22;70191;51.114;8.678;2023-06-22T18:19:47;26.10;99.90
80789;DHT22;70191;51.114;8.678;2023-06-22T18:22:13;25.40;99.90
80789;DHT22;70191;51.114;8.678;2023-06-22T18:24:40;25.40;99.90
80789;DHT22;70191;51.114;8.678;2023-06-22T18:27:06;25.40;99.90
80789;DHT22;70191;51.114;8.678;2023-06-22T18:32:45;25.40;99.90
80789;DHT22;70191;51.114;8.678;2023-06-22T18:42:46;25.50;99.90
80789;DHT22;70191;51.114;8.678;2023-06-22T18:46:40;25.60;99.90
80789;DHT22;70191;51.114;8.678;2023-06-22T18:49:15;25.70;99.90
80789;DHT22;70191;51.114;8.678;2023-06-22T18:52:06;25.60;99.90
80789;DHT22;70191;51.114;8.678;2023-06-22T18:57:22;25.80;99.90
80789;DHT22;70191;51.114;8.678;2023-06-22T19:05:18;25.60;99.90
80789;DHT22;70191;51.114;8.678;2023-06-22T19:13:26;25.60;99.90
80789;DHT22;70191;51.114;8.678;2023-06-22T19:15:53;25.60;99.90
80789;DHT22;70191;51.114;8.678;2023-06-22T19:18:28;25.40;99.90
80789;DHT22;70191;51.114;8.678;2023-06-22T19:21:03;25.30;99.90
80789;DHT22;70191;51.114;8.678;2023-06-22T19:23:32;25.30;99.90
80789;DHT22;70191;51.114;8.678;2023-06-22T19:26:06;25.30;99.90
80789;DHT22;70191;51.114;8.678;2023-06-22T19:28:33;25.20;99.90
80789;DHT22;70191;51.114;8.678;2023-06-22T19:31:00;25.30;99.90
80789;DHT22;70191;51.114;8.678;2023-06-22T19:33:28;25.10;99.90
80789;DHT22;70191;51.114;8.678;2023-06-22T19:35:55;25.10;99.90
80789;DHT22;70191;51.114;8.678;2023-06-22T19:38:26;25.20;99.90
80789;DHT22;70191;51.114;8.678;2023-06-22T19:40:52;24.80;99.90
80789;DHT22;70191;51.114;8.678;2023-06-22T19:43:18;24.90;99.90
80789;DHT22;70191;51.114;8.678;2023-06-22T19:45:45;25.00;99.90
80789;DHT22;70191;51.114;8.678;2023-06-22T19:48:14;24.90;99.90
80789;DHT22;70191;51.114;8.678;2023-06-22T19:50:41;24.80;99.90
80789;DHT22;70191;51.114;8.678;2023-06-22T19:53:12;24.60;99.90
80789;DHT22;70191;51.114;8.678;2023-06-22T19:55:46;24.60;99.90
80789;DHT22;70191;51.114;8.678;2023-06-22T19:58:13;24.90;99.90
80789;DHT22;70191;51.114;8.678;2023-06-22T20:00:40;25.10;99.90
80789;DHT22;70191;51.114;8.678;2023-06-22T20:03:11;25.10;99.90
80789;DHT22;70191;51.114;8.678;2023-06-22T20:05:44;25.10;99.90
80789;DHT22;70191;51.114;8.678;2023-06-22T20:08:15;25.30;99.90
80789;DHT22;70191;51.114;8.678;2023-06-22T20:10:42;25.20;99.90
80789;DHT22;70191;51.114;8.678;2023-06-22T20:13:13;25.10;99.90
80789;DHT22;70191;51.114;8.678;2023-06-22T20:15:43;25.10;99.90
80789;DHT22;70191;51.114;8.678;2023-06-22T20:18:10;25.10;99.90
80789;DHT22;70191;51.114;8.678;2023-06-22T20:20:38;25.30;99.90
80789;DHT22;70191;51.114;8.678;2023-06-22T20:23:05;25.50;99.90
80789;DHT22;70191;51.114;8.678;2023-06-22T20:25:34;25.30;99.90
80789;DHT22;70191;51.114;8.678;2023-06-22T20:28:18;25.40;99.90
80789;DHT22;70191;51.114;8.678;2023-06-22T20:31:09;25.30;99.90
80789;DHT22;70191;51.114;8.678;2023-06-22T20:33:37;25.40;99.90
80789;DHT22;70191;51.114;8.678;2023-06-22T20:36:06;25.50;99.90
80789;DHT22;70191;51.114;8.678;2023-06-22T20:38:31;25.50;99.90
80789;DHT22;70191;51.114;8.678;2023-06-22T20:40:59;25.60;99.90
80789;DHT22;70191;51.114;8.678;2023-06-22T20:43:24;25.60;99.90
80789;DHT22;70191;51.114;8.678;2023-06-22T20:45:53;25.50;99.90
80789;DHT22;70191;51.114;8.678;2023-06-22T20:48:21;25.60;99.90
80789;DHT22;70191;51.114;8.678;2023-06-22T20:50:48;25.70;99.90
80789;DHT22;70191;51.114;8.678;2023-06-22T20:53:14;25.70;99.90
80789;DHT22;70191;51.114;8.678;2023-06-22T20:55:40;25.70;99.90
80789;DHT22;70191;51.114;8.678;2023-06-22T20:58:07;25.60;99.90
80789;DHT22;70191;51.114;8.678;2023-06-22T21:00:33;25.60;99.90
80789;DHT22;70191;51.114;8.678;2023-06-22T21:03:03;25.60;99.90
80789;DHT22;70191;51.114;8.678;2023-06-22T21:05:28;25.70;99.90
80789;DHT22;70191;51.114;8.678;2023-06-22T21:07:54;25.70;99.90
80789;DHT22;70191;51.114;8.678;2023-06-22T21:10:20;25.60;99.90
80789;DHT22;70191;51.114;8.678;2023-06-22T21:12:46;25.80;99.90
80789;DHT22;70191;51.114;8.678;2023-06-22T21:15:11;25.80;99.90
80789;DHT22;70191;51.114;8.678;2023-06-22T21:17:37;25.70;99.90
80789;DHT22;70191;51.114;8.678;2023-06-22T21:20:04;25.60;99.90
80789;DHT22;70191;51.114;8.678;2023-06-22T21:22:33;25.60;99.90
80789;DHT22;70191;51.114;8.678;2023-06-22T21:25:07;25.60;99.90
80789;DHT22;70191;51.114;8.678;2023-06-22T21:27:35;25.70;99.90
80789;DHT22;70191;51.114;8.678;2023-06-22T21:30:01;25.70;99.90
80789;DHT22;70191;51.114;8.678;2023-06-22T21:32:27;25.70;99.90
80789;DHT22;70191;51.114;8.678;2023-06-22T21:34:52;25.70;99.90
80789;DHT22;70191;51.114;8.678;2023-06-22T21:37:18;25.70;99.90
80789;DHT22;70191;51.114;8.678;2023-06-22T21:39:44;25.80;99.90
80789;DHT22;70191;51.114;8.678;2023-06-22T21:42:10;25.70;99.90
80789;DHT22;70191;51.114;8.678;2023-06-22T21:44:36;25.70;99.90
80789;DHT22;70191;51.114;8.678;2023-06-22T21:47:01;25.60;99.90
80789;DHT22;70191;51.114;8.678;2023-06-22T21:49:27;25.60;99.90
80789;DHT22;70191;51.114;8.678;2023-06-22T21:51:52;25.60;99.90
80789;DHT22;70191;51.114;8.678;2023-06-22T21:54:18;25.60;99.90
80789;DHT22;70191;51.114;8.678;2023-06-22T21:56:44;25.60;99.90
80789;DHT22;70191;51.114;8.678;2023-06-22T21:59:09;25.60;99.90
80789;DHT22;70191;51.114;8.678;2023-06-22T22:01:35;25.60;99.90
80789;DHT22;70191;51.114;8.678;2023-06-22T22:04:00;25.60;99.90
80789;DHT22;70191;51.114;8.678;2023-06-22T22:06:26;25.70;99.90
80789;DHT22;70191;51.114;8.678;2023-06-22T22:08:54;25.60;99.90
80789;DHT22;70191;51.114;8.678;2023-06-22T22:11:21;25.60;99.90
80789;DHT22;70191;51.114;8.678;2023-06-22T22:13:47;25.50;99.90
80789;DHT22;70191;51.114;8.678;2023-06-22T22:16:13;25.60;99.90
80789;DHT22;70191;51.114;8.678;2023-06-22T22:18:39;25.70;99.90
80789;DHT22;70191;51.114;8.678;2023-06-22T22:21:04;25.80;99.90
80789;DHT22;70191;51.114;8.678;2023-06-22T22:23:30;25.90;99.90
80789;DHT22;70191;51.114;8.678;2023-06-22T22:25:55;25.70;99.90
80789;DHT22;70191;51.114;8.678;2023-06-22T22:28:21;25.60;99.90
80789;DHT22;70191;51.114;8.678;2023-06-22T22:30:48;25.60;99.90
80789;DHT22;70191;51.114;8.678;2023-06-22T22:33:13;25.70;99.90
80789;DHT22;70191;51.114;8.678;2023-06-22T22:35:39;25.70;99.90
80789;DHT22;70191;51.114;8.678;2023-06-22T22:38:04;25.70;99.90
80789;DHT22;70191;51.114;8.678;2023-06-22T22:40:30;25.70;99.90
80789;DHT22;70191;51.114;8.678;2023-06-22T22:42:55;25.70;99.90
80789;DHT22;70191;51.114;8.678;2023-06-22T22:45:21;25.80;99.90
80789;DHT22;70191;51.114;8.678;2023-06-22T22:47:46;25.70;99.90
80789;DHT22;70191;51.114;8.678;2023-06-22T22:50:12;25.60;99.90
80789;DHT22;70191;51.114;8.678;2023-06-22T22:52:37;25.60;99.90
80789;DHT22;70191;51.114;8.678;2023-06-22T22:55:05;25.60;99.90
80789;DHT22;70191;51.114;8.678;2023-06-22T22:57:32;25.60;99.90
80789;DHT22;70191;51.114;8.678;2023-06-22T22:59:58;25.70;99.90
80789;DHT22;70191;51.114;8.678;2023-06-22T23:02:24;25.60;99.90
80789;DHT22;70191;51.114;8.678;2023-06-22T23:04:57;25.70;99.90
80789;DHT22;70191;51.114;8.678;2023-06-22T23:07:24;25.70;99.90
80789;DHT22;70191;51.114;8.678;2023-06-22T23:09:51;25.60;99.90
80789;DHT22;70191;51.114;8.678;2023-06-22T23:12:16;25.70;99.90
80789;DHT22;70191;51.114;8.678;2023-06-22T23:14:42;25.60;99.90
80789;DHT22;70191;51.114;8.678;2023-06-22T23:17:07;25.60;99.90
80789;DHT22;70191;51.114;8.678;2023-06-22T23:19:33;25.50;99.90
80789;DHT22;70191;51.114;8.678;2023-06-22T23:23:59;25.30;99.90
80789;DHT22;70191;51.114;8.678;2023-06-22T23:26:25;25.20;99.90
80789;DHT22;70191;51.114;8.678;2023-06-22T23:28:52;25.10;99.90
80789;DHT22;70191;51.114;8.678;2023-06-22T23:31:18;25.00;99.90
80789;DHT22;70191;51.114;8.678;2023-06-22T23:33:44;25.00;99.90
80789;DHT22;70191;51.114;8.678;2023-06-22T23:36:09;25.00;99.90
80789;DHT22;70191;51.114;8.678;2023-06-22T23:38:35;25.00;99.90
80789;DHT22;70191;51.114;8.678;2023-06-22T23:41:00;25.00;99.90
80789;DHT22;70191;51.114;8.678;2023-06-22T23:43:26;25.00;99.90
80789;DHT22;70191;51.114;8.678;2023-06-22T23:45:52;25.00;99.90
80789;DHT22;70191;51.114;8.678;2023-06-22T23:48:17;25.00;99.90
80789;DHT22;70191;51.114;8.678;2023-06-22T23:50:43;24.90;99.90
80789;DHT22;70191;51.114;8.678;2023-06-22T23:53:09;24.90;99.90
80789;DHT22;70191;51.114;8.678;2023-06-22T23:55:34;24.80;99.90
80789;DHT22;70191;51.114;8.678;2023-06-22T23:58:01;24.70;99.90
